sensor_id;sensor_type;location;lat;lon;timestamp;P1;durP1;ratioP1;P2;durP2;ratioP2
68089;SDS011;54880;50.986;6.990;2023-07-08T00:00:50;10.25;;;3.88;;
68089;SDS011;54880;50.986;6.990;2023-07-08T00:03:16;10.32;;;4.20;;
68089;SDS011;54880;50.986;6.990;2023-07-08T00:05:42;8.30;;;4.03;;
68089;SDS011;54880;50.986;6.990;2023-07-08T00:08:14;10.43;;;4.38;;
68089;SDS011;54880;50.986;6.990;2023-07-08T00:10:39;8.63;;;4.50;;
68089;SDS011;54880;50.986;6.990;2023-07-08T00:13:04;10.07;;;4.50;;
68089;SDS011;54880;50.986;6.990;2023-07-08T00:15:30;9.10;;;4.60;;
68089;SDS011;54880;50.986;6.990;2023-07-08T00:17:57;10.32;;;4.20;;
68089;SDS011;54880;50.986;6.990;2023-07-08T00:20:33;9.57;;;4.00;;
68089;SDS011;54880;50.986;6.990;2023-07-08T00:23:00;9.35;;;4.50;;
68089;SDS011;54880;50.986;6.990;2023-07-08T00:25:28;8.70;;;4.18;;
68089;SDS011;54880;50.986;6.990;2023-07-08T00:27:54;9.97;;;4.30;;
68089;SDS011;54880;50.986;6.990;2023-07-08T00:30:21;8.80;;;4.70;;
68089;SDS011;54880;50.986;6.990;2023-07-08T00:32:48;9.73;;;4.60;;
68089;SDS011;54880;50.986;6.990;2023-07-08T00:35:18;11.55;;;4.40;;
68089;SDS011;54880;50.986;6.990;2023-07-08T00:37:44;11.65;;;4.63;;
68089;SDS011;54880;50.986;6.990;2023-07-08T00:40:13;9.07;;;5.00;;
68089;SDS011;54880;50.986;6.990;2023-07-08T00:42:39;10.43;;;4.60;;
68089;SDS011;54880;50.986;6.990;2023-07-08T00:45:11;9.40;;;4.93;;
68089;SDS011;54880;50.986;6.990;2023-07-08T00:47:40;9.48;;;4.75;;
68089;SDS011;54880;50.986;6.990;2023-07-08T00:50:07;12.27;;;5.00;;
68089;SDS011;54880;50.986;6.990;2023-07-08T00:52:33;10.60;;;5.03;;
68089;SDS011;54880;50.986;6.990;2023-07-08T00:55:00;9.40;;;4.50;;
68089;SDS011;54880;50.986;6.990;2023-07-08T00:57:28;10.67;;;4.63;;
68089;SDS011;54880;50.986;6.990;2023-07-08T01:00:05;11.05;;;5.00;;
68089;SDS011;54880;50.986;6.990;2023-07-08T01:02:31;10.25;;;5.15;;
68089;SDS011;54880;50.986;6.990;2023-07-08T01:05:06;11.85;;;4.90;;
68089;SDS011;54880;50.986;6.990;2023-07-08T01:07:37;10.30;;;4.80;;
68089;SDS011;54880;50.986;6.990;2023-07-08T01:10:04;10.03;;;4.83;;
68089;SDS011;54880;50.986;6.990;2023-07-08T01:12:32;10.00;;;4.70;;
68089;SDS011;54880;50.986;6.990;2023-07-08T01:14:58;9.48;;;5.10;;
68089;SDS011;54880;50.986;6.990;2023-07-08T01:17:25;10.07;;;5.00;;
68089;SDS011;54880;50.986;6.990;2023-07-08T01:19:57;10.05;;;4.90;;
68089;SDS011;54880;50.986;6.990;2023-07-08T01:22:22;11.47;;;5.03;;
68089;SDS011;54880;50.986;6.990;2023-07-08T01:24:48;11.03;;;5.47;;
68089;SDS011;54880;50.986;6.990;2023-07-08T01:27:14;11.77;;;5.23;;
68089;SDS011;54880;50.986;6.990;2023-07-08T01:29:41;10.48;;;5.50;;
68089;SDS011;54880;50.986;6.990;2023-07-08T01:32:09;12.40;;;5.80;;
68089;SDS011;54880;50.986;6.990;2023-07-08T01:34:39;10.23;;;5.20;;
68089;SDS011;54880;50.986;6.990;2023-07-08T01:37:04;8.00;;;4.50;;
68089;SDS011;54880;50.986;6.990;2023-07-08T01:39:31;10.07;;;5.43;;
68089;SDS011;54880;50.986;6.990;2023-07-08T01:41:56;12.48;;;5.35;;
68089;SDS011;54880;50.986;6.990;2023-07-08T01:46:58;10.23;;;5.10;;
68089;SDS011;54880;50.986;6.990;2023-07-08T01:49:25;11.10;;;4.88;;
68089;SDS011;54880;50.986;6.990;2023-07-08T01:51:50;10.23;;;5.13;;
68089;SDS011;54880;50.986;6.990;2023-07-08T01:54:15;11.80;;;5.70;;
68089;SDS011;54880;50.986;6.990;2023-07-08T01:56:41;10.20;;;5.03;;
68089;SDS011;54880;50.986;6.990;2023-07-08T01:59:06;12.43;;;5.67;;
68089;SDS011;54880;50.986;6.990;2023-07-08T02:01:31;11.77;;;5.73;;
68089;SDS011;54880;50.986;6.990;2023-07-08T02:03:56;11.07;;;5.10;;
68089;SDS011;54880;50.986;6.990;2023-07-08T02:06:22;11.53;;;5.37;;
68089;SDS011;54880;50.986;6.990;2023-07-08T02:08:47;9.60;;;4.90;;
68089;SDS011;54880;50.986;6.990;2023-07-08T02:11:12;11.87;;;5.30;;
68089;SDS011;54880;50.986;6.990;2023-07-08T02:13:37;10.85;;;4.75;;
68089;SDS011;54880;50.986;6.990;2023-07-08T02:16:03;10.80;;;5.75;;
68089;SDS011;54880;50.986;6.990;2023-07-08T02:18:28;11.77;;;5.10;;
68089;SDS011;54880;50.986;6.990;2023-07-08T02:20:57;11.17;;;5.00;;
68089;SDS011;54880;50.986;6.990;2023-07-08T02:23:22;12.53;;;5.50;;
68089;SDS011;54880;50.986;6.990;2023-07-08T02:25:51;11.07;;;5.93;;
68089;SDS011;54880;50.986;6.990;2023-07-08T02:28:16;10.33;;;5.43;;
68089;SDS011;54880;50.986;6.990;2023-07-08T02:30:42;11.25;;;5.50;;
68089;SDS011;54880;50.986;6.990;2023-07-08T02:33:07;11.45;;;5.30;;
68089;SDS011;54880;50.986;6.990;2023-07-08T02:35:34;10.82;;;5.60;;
68089;SDS011;54880;50.986;6.990;2023-07-08T02:38:00;10.70;;;5.37;;
68089;SDS011;54880;50.986;6.990;2023-07-08T02:40:25;10.93;;;5.60;;
68089;SDS011;54880;50.986;6.990;2023-07-08T02:42:50;10.75;;;5.10;;
68089;SDS011;54880;50.986;6.990;2023-07-08T02:45:16;12.13;;;5.73;;
68089;SDS011;54880;50.986;6.990;2023-07-08T02:47:41;11.93;;;5.13;;
68089;SDS011;54880;50.986;6.990;2023-07-08T02:50:07;10.83;;;5.40;;
68089;SDS011;54880;50.986;6.990;2023-07-08T02:52:33;10.55;;;5.28;;
68089;SDS011;54880;50.986;6.990;2023-07-08T02:54:59;10.77;;;5.80;;
68089;SDS011;54880;50.986;6.990;2023-07-08T02:57:24;10.43;;;4.90;;
68089;SDS011;54880;50.986;6.990;2023-07-08T02:59:49;10.30;;;5.07;;
68089;SDS011;54880;50.986;6.990;2023-07-08T03:02:14;12.30;;;5.50;;
68089;SDS011;54880;50.986;6.990;2023-07-08T03:04:40;13.05;;;5.55;;
68089;SDS011;54880;50.986;6.990;2023-07-08T03:07:06;13.20;;;5.37;;
68089;SDS011;54880;50.986;6.990;2023-07-08T03:09:36;10.85;;;5.15;;
68089;SDS011;54880;50.986;6.990;2023-07-08T03:12:02;10.57;;;5.38;;
68089;SDS011;54880;50.986;6.990;2023-07-08T03:14:29;10.88;;;4.93;;
68089;SDS011;54880;50.986;6.990;2023-07-08T03:16:54;10.68;;;5.05;;
68089;SDS011;54880;50.986;6.990;2023-07-08T03:19:20;10.65;;;5.50;;
68089;SDS011;54880;50.986;6.990;2023-07-08T03:21:45;10.45;;;4.93;;
68089;SDS011;54880;50.986;6.990;2023-07-08T03:24:11;10.53;;;5.53;;
68089;SDS011;54880;50.986;6.990;2023-07-08T03:26:39;10.52;;;5.28;;
68089;SDS011;54880;50.986;6.990;2023-07-08T03:29:07;9.95;;;5.00;;
68089;SDS011;54880;50.986;6.990;2023-07-08T03:31:34;12.30;;;5.28;;
68089;SDS011;54880;50.986;6.990;2023-07-08T03:33:59;12.83;;;5.37;;
68089;SDS011;54880;50.986;6.990;2023-07-08T03:36:27;12.10;;;5.20;;
68089;SDS011;54880;50.986;6.990;2023-07-08T03:38:53;9.77;;;4.87;;
68089;SDS011;54880;50.986;6.990;2023-07-08T03:41:19;11.50;;;4.57;;
68089;SDS011;54880;50.986;6.990;2023-07-08T03:43:44;11.00;;;4.90;;
68089;SDS011;54880;50.986;6.990;2023-07-08T03:46:12;11.77;;;4.93;;
68089;SDS011;54880;50.986;6.990;2023-07-08T03:48:38;12.73;;;4.68;;
68089;SDS011;54880;50.986;6.990;2023-07-08T03:51:07;12.23;;;5.40;;
68089;SDS011;54880;50.986;6.990;2023-07-08T03:53:34;10.68;;;5.18;;
68089;SDS011;54880;50.986;6.990;2023-07-08T03:56:00;11.80;;;5.50;;
68089;SDS011;54880;50.986;6.990;2023-07-08T03:58:26;15.10;;;5.50;;
68089;SDS011;54880;50.986;6.990;2023-07-08T04:00:51;11.23;;;5.13;;
68089;SDS011;54880;50.986;6.990;2023-07-08T04:03:17;11.07;;;5.20;;
68089;SDS011;54880;50.986;6.990;2023-07-08T04:05:42;13.77;;;5.70;;
68089;SDS011;54880;50.986;6.990;2023-07-08T04:08:07;11.27;;;4.93;;
68089;SDS011;54880;50.986;6.990;2023-07-08T04:10:33;12.73;;;5.35;;
68089;SDS011;54880;50.986;6.990;2023-07-08T04:12:58;12.65;;;5.38;;
68089;SDS011;54880;50.986;6.990;2023-07-08T04:15:23;11.00;;;5.20;;
68089;SDS011;54880;50.986;6.990;2023-07-08T04:17:52;10.27;;;5.40;;
68089;SDS011;54880;50.986;6.990;2023-07-08T04:20:20;12.43;;;5.40;;
68089;SDS011;54880;50.986;6.990;2023-07-08T04:22:45;13.03;;;5.20;;
68089;SDS011;54880;50.986;6.990;2023-07-08T04:25:11;12.93;;;5.47;;
68089;SDS011;54880;50.986;6.990;2023-07-08T04:27:37;12.60;;;5.15;;
68089;SDS011;54880;50.986;6.990;2023-07-08T04:30:03;11.67;;;5.50;;
68089;SDS011;54880;50.986;6.990;2023-07-08T04:32:29;11.18;;;5.43;;
68089;SDS011;54880;50.986;6.990;2023-07-08T04:34:54;10.83;;;5.50;;
68089;SDS011;54880;50.986;6.990;2023-07-08T04:37:19;12.23;;;5.30;;
68089;SDS011;54880;50.986;6.990;2023-07-08T04:39:45;12.18;;;4.63;;
68089;SDS011;54880;50.986;6.990;2023-07-08T04:42:11;11.10;;;4.80;;
68089;SDS011;54880;50.986;6.990;2023-07-08T04:44:38;10.98;;;5.10;;
68089;SDS011;54880;50.986;6.990;2023-07-08T04:47:03;13.97;;;5.10;;
68089;SDS011;54880;50.986;6.990;2023-07-08T04:49:28;11.60;;;5.17;;
68089;SDS011;54880;50.986;6.990;2023-07-08T04:51:58;10.32;;;4.55;;
68089;SDS011;54880;50.986;6.990;2023-07-08T04:54:24;10.48;;;5.20;;
68089;SDS011;54880;50.986;6.990;2023-07-08T04:56:49;13.87;;;5.47;;
68089;SDS011;54880;50.986;6.990;2023-07-08T04:59:16;15.10;;;5.20;;
68089;SDS011;54880;50.986;6.990;2023-07-08T05:01:41;12.07;;;5.25;;
68089;SDS011;54880;50.986;6.990;2023-07-08T05:04:07;10.80;;;5.50;;
68089;SDS011;54880;50.986;6.990;2023-07-08T05:06:33;11.30;;;4.70;;
68089;SDS011;54880;50.986;6.990;2023-07-08T05:08:59;13.20;;;4.93;;
68089;SDS011;54880;50.986;6.990;2023-07-08T05:11:25;9.40;;;4.80;;
68089;SDS011;54880;50.986;6.990;2023-07-08T05:13:50;12.20;;;4.88;;
68089;SDS011;54880;50.986;6.990;2023-07-08T05:16:16;12.80;;;4.63;;
68089;SDS011;54880;50.986;6.990;2023-07-08T05:18:41;12.90;;;4.93;;
68089;SDS011;54880;50.986;6.990;2023-07-08T05:21:06;10.43;;;4.70;;
68089;SDS011;54880;50.986;6.990;2023-07-08T05:23:33;12.00;;;4.55;;
68089;SDS011;54880;50.986;6.990;2023-07-08T05:26:02;9.97;;;4.70;;
68089;SDS011;54880;50.986;6.990;2023-07-08T05:28:27;12.18;;;5.65;;
68089;SDS011;54880;50.986;6.990;2023-07-08T05:30:55;11.40;;;4.67;;
68089;SDS011;54880;50.986;6.990;2023-07-08T05:33:22;12.70;;;4.75;;
68089;SDS011;54880;50.986;6.990;2023-07-08T05:35:47;12.20;;;4.70;;
68089;SDS011;54880;50.986;6.990;2023-07-08T05:38:12;10.83;;;4.30;;
68089;SDS011;54880;50.986;6.990;2023-07-08T05:40:38;9.20;;;4.40;;
68089;SDS011;54880;50.986;6.990;2023-07-08T05:43:03;7.70;;;4.10;;
68089;SDS011;54880;50.986;6.990;2023-07-08T05:45:28;8.53;;;3.80;;
68089;SDS011;54880;50.986;6.990;2023-07-08T05:47:53;9.13;;;4.27;;
68089;SDS011;54880;50.986;6.990;2023-07-08T05:50:18;11.00;;;4.27;;
68089;SDS011;54880;50.986;6.990;2023-07-08T05:52:44;9.37;;;3.80;;
68089;SDS011;54880;50.986;6.990;2023-07-08T05:55:09;10.87;;;4.07;;
68089;SDS011;54880;50.986;6.990;2023-07-08T05:57:34;9.07;;;3.83;;
68089;SDS011;54880;50.986;6.990;2023-07-08T06:00:00;8.20;;;3.92;;
68089;SDS011;54880;50.986;6.990;2023-07-08T06:02:25;9.87;;;3.83;;
68089;SDS011;54880;50.986;6.990;2023-07-08T06:04:51;10.63;;;4.03;;
68089;SDS011;54880;50.986;6.990;2023-07-08T06:07:16;9.33;;;3.63;;
68089;SDS011;54880;50.986;6.990;2023-07-08T06:09:42;7.93;;;3.78;;
68089;SDS011;54880;50.986;6.990;2023-07-08T06:12:07;8.50;;;3.70;;
68089;SDS011;54880;50.986;6.990;2023-07-08T06:14:32;8.47;;;3.63;;
68089;SDS011;54880;50.986;6.990;2023-07-08T06:16:58;7.90;;;4.10;;
68089;SDS011;54880;50.986;6.990;2023-07-08T06:19:23;8.57;;;4.20;;
68089;SDS011;54880;50.986;6.990;2023-07-08T06:21:49;7.37;;;3.50;;
68089;SDS011;54880;50.986;6.990;2023-07-08T06:24:14;8.53;;;3.90;;
68089;SDS011;54880;50.986;6.990;2023-07-08T06:26:39;9.40;;;4.00;;
68089;SDS011;54880;50.986;6.990;2023-07-08T06:29:04;10.67;;;4.00;;
68089;SDS011;54880;50.986;6.990;2023-07-08T06:31:30;10.70;;;4.00;;
68089;SDS011;54880;50.986;6.990;2023-07-08T06:33:55;10.60;;;4.20;;
68089;SDS011;54880;50.986;6.990;2023-07-08T06:36:20;9.73;;;4.33;;
68089;SDS011;54880;50.986;6.990;2023-07-08T06:38:46;9.87;;;4.23;;
68089;SDS011;54880;50.986;6.990;2023-07-08T06:41:11;8.80;;;4.23;;
68089;SDS011;54880;50.986;6.990;2023-07-08T06:43:36;10.57;;;3.67;;
68089;SDS011;54880;50.986;6.990;2023-07-08T06:46:15;8.93;;;4.53;;
68089;SDS011;54880;50.986;6.990;2023-07-08T06:48:40;9.05;;;4.00;;
68089;SDS011;54880;50.986;6.990;2023-07-08T06:51:06;8.60;;;3.77;;
68089;SDS011;54880;50.986;6.990;2023-07-08T06:53:31;7.53;;;3.97;;
68089;SDS011;54880;50.986;6.990;2023-07-08T06:55:57;8.87;;;3.70;;
68089;SDS011;54880;50.986;6.990;2023-07-08T06:58:22;8.70;;;4.20;;
68089;SDS011;54880;50.986;6.990;2023-07-08T07:00:47;8.47;;;4.00;;
68089;SDS011;54880;50.986;6.990;2023-07-08T07:03:12;9.53;;;4.57;;
68089;SDS011;54880;50.986;6.990;2023-07-08T07:05:39;8.23;;;4.00;;
68089;SDS011;54880;50.986;6.990;2023-07-08T07:08:04;11.65;;;4.05;;
68089;SDS011;54880;50.986;6.990;2023-07-08T07:10:30;9.23;;;4.47;;
68089;SDS011;54880;50.986;6.990;2023-07-08T07:12:55;9.90;;;3.72;;
68089;SDS011;54880;50.986;6.990;2023-07-08T07:15:21;9.10;;;4.10;;
68089;SDS011;54880;50.986;6.990;2023-07-08T07:17:46;13.00;;;4.00;;
68089;SDS011;54880;50.986;6.990;2023-07-08T07:20:11;9.80;;;4.33;;
68089;SDS011;54880;50.986;6.990;2023-07-08T07:22:37;9.87;;;4.40;;
68089;SDS011;54880;50.986;6.990;2023-07-08T07:25:02;8.60;;;4.00;;
68089;SDS011;54880;50.986;6.990;2023-07-08T07:27:27;7.90;;;3.80;;
68089;SDS011;54880;50.986;6.990;2023-07-08T07:29:53;10.37;;;4.07;;
68089;SDS011;54880;50.986;6.990;2023-07-08T07:32:19;9.70;;;4.20;;
68089;SDS011;54880;50.986;6.990;2023-07-08T07:34:47;11.73;;;4.37;;
68089;SDS011;54880;50.986;6.990;2023-07-08T07:37:13;9.70;;;4.30;;
68089;SDS011;54880;50.986;6.990;2023-07-08T07:39:39;10.98;;;4.90;;
68089;SDS011;54880;50.986;6.990;2023-07-08T07:42:04;11.53;;;4.63;;
68089;SDS011;54880;50.986;6.990;2023-07-08T07:44:29;10.70;;;4.80;;
68089;SDS011;54880;50.986;6.990;2023-07-08T07:46:55;10.50;;;4.77;;
68089;SDS011;54880;50.986;6.990;2023-07-08T07:49:20;12.07;;;4.73;;
68089;SDS011;54880;50.986;6.990;2023-07-08T07:51:45;9.40;;;4.38;;
68089;SDS011;54880;50.986;6.990;2023-07-08T07:54:11;10.17;;;4.50;;
68089;SDS011;54880;50.986;6.990;2023-07-08T07:56:36;9.00;;;4.13;;
68089;SDS011;54880;50.986;6.990;2023-07-08T07:59:02;10.30;;;4.87;;
68089;SDS011;54880;50.986;6.990;2023-07-08T08:01:27;9.45;;;4.90;;
68089;SDS011;54880;50.986;6.990;2023-07-08T08:03:52;10.13;;;5.10;;
68089;SDS011;54880;50.986;6.990;2023-07-08T08:06:18;11.33;;;4.77;;
68089;SDS011;54880;50.986;6.990;2023-07-08T08:08:43;9.90;;;4.53;;
68089;SDS011;54880;50.986;6.990;2023-07-08T08:11:09;9.03;;;4.30;;
68089;SDS011;54880;50.986;6.990;2023-07-08T08:13:34;9.77;;;4.97;;
68089;SDS011;54880;50.986;6.990;2023-07-08T08:16:00;10.77;;;4.43;;
68089;SDS011;54880;50.986;6.990;2023-07-08T08:18:25;9.90;;;5.13;;
68089;SDS011;54880;50.986;6.990;2023-07-08T08:20:51;9.60;;;5.00;;
68089;SDS011;54880;50.986;6.990;2023-07-08T08:23:16;8.80;;;4.45;;
68089;SDS011;54880;50.986;6.990;2023-07-08T08:25:41;10.73;;;4.73;;
68089;SDS011;54880;50.986;6.990;2023-07-08T08:28:07;10.23;;;4.63;;
68089;SDS011;54880;50.986;6.990;2023-07-08T08:30:32;10.23;;;4.67;;
68089;SDS011;54880;50.986;6.990;2023-07-08T08:32:57;10.53;;;4.97;;
68089;SDS011;54880;50.986;6.990;2023-07-08T08:35:23;8.50;;;4.33;;
68089;SDS011;54880;50.986;6.990;2023-07-08T08:37:48;10.83;;;4.77;;
68089;SDS011;54880;50.986;6.990;2023-07-08T08:40:17;10.38;;;4.32;;
68089;SDS011;54880;50.986;6.990;2023-07-08T08:42:44;10.00;;;4.87;;
68089;SDS011;54880;50.986;6.990;2023-07-08T08:45:13;11.00;;;4.35;;
68089;SDS011;54880;50.986;6.990;2023-07-08T08:47:47;11.35;;;4.63;;
68089;SDS011;54880;50.986;6.990;2023-07-08T08:50:24;9.52;;;4.47;;
68089;SDS011;54880;50.986;6.990;2023-07-08T08:52:51;10.48;;;4.38;;
68089;SDS011;54880;50.986;6.990;2023-07-08T08:55:17;9.33;;;4.37;;
68089;SDS011;54880;50.986;6.990;2023-07-08T08:57:50;10.10;;;4.90;;
68089;SDS011;54880;50.986;6.990;2023-07-08T09:00:24;11.30;;;5.10;;
68089;SDS011;54880;50.986;6.990;2023-07-08T09:03:10;9.43;;;4.50;;
68089;SDS011;54880;50.986;6.990;2023-07-08T09:05:36;9.77;;;4.53;;
68089;SDS011;54880;50.986;6.990;2023-07-08T09:10:45;9.93;;;4.57;;
68089;SDS011;54880;50.986;6.990;2023-07-08T09:15:59;11.13;;;4.57;;
68089;SDS011;54880;50.986;6.990;2023-07-08T09:18:27;9.50;;;4.50;;
68089;SDS011;54880;50.986;6.990;2023-07-08T09:20:55;10.45;;;4.22;;
68089;SDS011;54880;50.986;6.990;2023-07-08T09:23:24;11.30;;;5.07;;
68089;SDS011;54880;50.986;6.990;2023-07-08T09:28:46;9.90;;;4.13;;
68089;SDS011;54880;50.986;6.990;2023-07-08T09:31:27;13.02;;;4.57;;
68089;SDS011;54880;50.986;6.990;2023-07-08T09:33:54;8.97;;;4.30;;
68089;SDS011;54880;50.986;6.990;2023-07-08T09:36:29;12.93;;;4.75;;
68089;SDS011;54880;50.986;6.990;2023-07-08T09:38:54;10.83;;;4.57;;
68089;SDS011;54880;50.986;6.990;2023-07-08T09:41:29;10.53;;;4.47;;
68089;SDS011;54880;50.986;6.990;2023-07-08T09:44:02;10.02;;;4.30;;
68089;SDS011;54880;50.986;6.990;2023-07-08T09:46:28;9.73;;;4.30;;
68089;SDS011;54880;50.986;6.990;2023-07-08T09:48:53;9.50;;;4.00;;
68089;SDS011;54880;50.986;6.990;2023-07-08T09:51:18;10.70;;;4.43;;
68089;SDS011;54880;50.986;6.990;2023-07-08T09:53:44;9.60;;;4.20;;
68089;SDS011;54880;50.986;6.990;2023-07-08T09:56:09;9.37;;;4.47;;
68089;SDS011;54880;50.986;6.990;2023-07-08T09:58:36;9.00;;;4.23;;
68089;SDS011;54880;50.986;6.990;2023-07-08T10:01:08;9.75;;;4.15;;
68089;SDS011;54880;50.986;6.990;2023-07-08T10:03:35;11.17;;;4.30;;
68089;SDS011;54880;50.986;6.990;2023-07-08T10:09:00;9.52;;;4.30;;
68089;SDS011;54880;50.986;6.990;2023-07-08T10:11:27;10.23;;;4.22;;
68089;SDS011;54880;50.986;6.990;2023-07-08T10:13:53;10.05;;;4.10;;
68089;SDS011;54880;50.986;6.990;2023-07-08T10:16:26;8.40;;;4.17;;
68089;SDS011;54880;50.986;6.990;2023-07-08T10:18:52;8.65;;;3.75;;
68089;SDS011;54880;50.986;6.990;2023-07-08T10:26:41;11.98;;;4.07;;
68089;SDS011;54880;50.986;6.990;2023-07-08T10:39:08;10.10;;;4.30;;
68089;SDS011;54880;50.986;6.990;2023-07-08T10:44:12;10.20;;;4.73;;
68089;SDS011;54880;50.986;6.990;2023-07-08T10:47:42;9.90;;;3.87;;
68089;SDS011;54880;50.986;6.990;2023-07-08T10:54:44;10.90;;;4.18;;
68089;SDS011;54880;50.986;6.990;2023-07-08T10:59:39;9.63;;;4.20;;
68089;SDS011;54880;50.986;6.990;2023-07-08T11:07:39;9.18;;;3.60;;
68089;SDS011;54880;50.986;6.990;2023-07-08T11:10:28;8.10;;;3.60;;
68089;SDS011;54880;50.986;6.990;2023-07-08T11:12:57;10.38;;;4.03;;
68089;SDS011;54880;50.986;6.990;2023-07-08T11:15:36;10.47;;;4.37;;
68089;SDS011;54880;50.986;6.990;2023-07-08T11:18:13;9.25;;;4.07;;
68089;SDS011;54880;50.986;6.990;2023-07-08T11:28:43;12.55;;;4.07;;
68089;SDS011;54880;50.986;6.990;2023-07-08T11:31:08;9.03;;;3.57;;
68089;SDS011;54880;50.986;6.990;2023-07-08T11:33:33;11.43;;;4.20;;
68089;SDS011;54880;50.986;6.990;2023-07-08T11:35:59;9.65;;;4.13;;
68089;SDS011;54880;50.986;6.990;2023-07-08T11:38:25;9.10;;;4.10;;
68089;SDS011;54880;50.986;6.990;2023-07-08T11:43:23;8.35;;;4.10;;
68089;SDS011;54880;50.986;6.990;2023-07-08T11:45:50;9.93;;;4.20;;
68089;SDS011;54880;50.986;6.990;2023-07-08T11:48:20;8.25;;;3.60;;
68089;SDS011;54880;50.986;6.990;2023-07-08T11:50:46;10.80;;;3.97;;
68089;SDS011;54880;50.986;6.990;2023-07-08T11:53:13;8.45;;;3.95;;
68089;SDS011;54880;50.986;6.990;2023-07-08T11:55:56;8.32;;;4.25;;
68089;SDS011;54880;50.986;6.990;2023-07-08T11:58:22;10.77;;;3.80;;
68089;SDS011;54880;50.986;6.990;2023-07-08T12:03:20;10.23;;;4.05;;
68089;SDS011;54880;50.986;6.990;2023-07-08T12:05:47;8.32;;;4.03;;
68089;SDS011;54880;50.986;6.990;2023-07-08T12:08:13;10.90;;;4.27;;
68089;SDS011;54880;50.986;6.990;2023-07-08T12:10:50;10.00;;;4.13;;
68089;SDS011;54880;50.986;6.990;2023-07-08T12:13:17;8.87;;;4.10;;
68089;SDS011;54880;50.986;6.990;2023-07-08T12:15:42;9.05;;;4.00;;
68089;SDS011;54880;50.986;6.990;2023-07-08T12:18:15;13.30;;;4.00;;
68089;SDS011;54880;50.986;6.990;2023-07-08T12:20:52;11.10;;;4.50;;
68089;SDS011;54880;50.986;6.990;2023-07-08T12:23:18;8.77;;;3.90;;
68089;SDS011;54880;50.986;6.990;2023-07-08T12:25:44;10.90;;;4.30;;
68089;SDS011;54880;50.986;6.990;2023-07-08T12:28:09;11.50;;;4.00;;
68089;SDS011;54880;50.986;6.990;2023-07-08T12:30:37;9.98;;;4.43;;
68089;SDS011;54880;50.986;6.990;2023-07-08T12:33:02;9.70;;;3.70;;
68089;SDS011;54880;50.986;6.990;2023-07-08T12:35:29;8.63;;;4.18;;
68089;SDS011;54880;50.986;6.990;2023-07-08T12:38:00;10.50;;;4.23;;
68089;SDS011;54880;50.986;6.990;2023-07-08T12:40:27;10.27;;;4.43;;
68089;SDS011;54880;50.986;6.990;2023-07-08T12:42:53;9.25;;;4.10;;
68089;SDS011;54880;50.986;6.990;2023-07-08T12:45:19;10.43;;;4.17;;
68089;SDS011;54880;50.986;6.990;2023-07-08T12:47:45;10.13;;;4.22;;
68089;SDS011;54880;50.986;6.990;2023-07-08T12:50:10;10.47;;;4.13;;
68089;SDS011;54880;50.986;6.990;2023-07-08T12:52:36;11.60;;;4.15;;
68089;SDS011;54880;50.986;6.990;2023-07-08T12:55:02;10.00;;;4.67;;
68089;SDS011;54880;50.986;6.990;2023-07-08T12:57:27;10.17;;;4.47;;
68089;SDS011;54880;50.986;6.990;2023-07-08T12:59:52;9.33;;;4.20;;
68089;SDS011;54880;50.986;6.990;2023-07-08T13:02:18;8.15;;;4.15;;
68089;SDS011;54880;50.986;6.990;2023-07-08T13:04:45;9.33;;;3.77;;
68089;SDS011;54880;50.986;6.990;2023-07-08T13:07:22;9.43;;;3.88;;
68089;SDS011;54880;50.986;6.990;2023-07-08T13:09:49;8.93;;;4.25;;
68089;SDS011;54880;50.986;6.990;2023-07-08T13:12:16;11.00;;;4.45;;
68089;SDS011;54880;50.986;6.990;2023-07-08T13:14:42;12.43;;;4.47;;
68089;SDS011;54880;50.986;6.990;2023-07-08T13:17:12;9.67;;;4.30;;
68089;SDS011;54880;50.986;6.990;2023-07-08T13:19:38;12.05;;;4.15;;
68089;SDS011;54880;50.986;6.990;2023-07-08T13:22:04;9.30;;;5.07;;
68089;SDS011;54880;50.986;6.990;2023-07-08T13:24:30;10.30;;;5.07;;
68089;SDS011;54880;50.986;6.990;2023-07-08T13:26:55;13.15;;;4.68;;
68089;SDS011;54880;50.986;6.990;2023-07-08T13:29:20;11.67;;;4.57;;
68089;SDS011;54880;50.986;6.990;2023-07-08T13:31:47;13.05;;;4.53;;
68089;SDS011;54880;50.986;6.990;2023-07-08T13:34:17;12.80;;;4.78;;
68089;SDS011;54880;50.986;6.990;2023-07-08T13:36:44;12.27;;;4.60;;
68089;SDS011;54880;50.986;6.990;2023-07-08T13:39:13;9.20;;;4.88;;
68089;SDS011;54880;50.986;6.990;2023-07-08T13:41:42;12.60;;;4.75;;
68089;SDS011;54880;50.986;6.990;2023-07-08T13:44:08;12.73;;;4.47;;
68089;SDS011;54880;50.986;6.990;2023-07-08T13:49:44;8.97;;;3.90;;
68089;SDS011;54880;50.986;6.990;2023-07-08T13:51:47;8.95;;;3.92;;
68089;SDS011;54880;50.986;6.990;2023-07-08T13:54:14;11.30;;;4.50;;
68089;SDS011;54880;50.986;6.990;2023-07-08T13:56:39;13.48;;;4.47;;
68089;SDS011;54880;50.986;6.990;2023-07-08T13:59:06;11.18;;;3.95;;
68089;SDS011;54880;50.986;6.990;2023-07-08T14:01:33;8.40;;;3.87;;
68089;SDS011;54880;50.986;6.990;2023-07-08T14:03:58;11.18;;;4.30;;
68089;SDS011;54880;50.986;6.990;2023-07-08T14:06:29;11.45;;;4.60;;
68089;SDS011;54880;50.986;6.990;2023-07-08T14:08:55;9.25;;;4.72;;
68089;SDS011;54880;50.986;6.990;2023-07-08T14:11:21;9.48;;;4.47;;
68089;SDS011;54880;50.986;6.990;2023-07-08T14:13:46;9.47;;;4.53;;
68089;SDS011;54880;50.986;6.990;2023-07-08T14:16:25;9.60;;;4.90;;
68089;SDS011;54880;50.986;6.990;2023-07-08T14:18:53;12.15;;;4.38;;
68089;SDS011;54880;50.986;6.990;2023-07-08T14:21:19;9.50;;;4.63;;
68089;SDS011;54880;50.986;6.990;2023-07-08T14:23:44;9.93;;;4.53;;
68089;SDS011;54880;50.986;6.990;2023-07-08T14:26:10;9.87;;;5.00;;
68089;SDS011;54880;50.986;6.990;2023-07-08T14:28:36;10.98;;;4.75;;
68089;SDS011;54880;50.986;6.990;2023-07-08T14:31:01;12.27;;;4.53;;
68089;SDS011;54880;50.986;6.990;2023-07-08T14:33:26;11.93;;;4.90;;
68089;SDS011;54880;50.986;6.990;2023-07-08T14:35:51;10.00;;;4.90;;
68089;SDS011;54880;50.986;6.990;2023-07-08T14:38:16;10.40;;;5.37;;
68089;SDS011;54880;50.986;6.990;2023-07-08T14:40:42;10.50;;;4.60;;
68089;SDS011;54880;50.986;6.990;2023-07-08T14:43:16;11.60;;;5.30;;
68089;SDS011;54880;50.986;6.990;2023-07-08T14:45:43;10.43;;;4.85;;
68089;SDS011;54880;50.986;6.990;2023-07-08T14:48:11;11.63;;;4.97;;
68089;SDS011;54880;50.986;6.990;2023-07-08T14:50:36;9.70;;;5.20;;
68089;SDS011;54880;50.986;6.990;2023-07-08T14:53:01;10.67;;;5.40;;
68089;SDS011;54880;50.986;6.990;2023-07-08T14:55:27;13.40;;;4.67;;
68089;SDS011;54880;50.986;6.990;2023-07-08T14:57:52;11.67;;;5.03;;
68089;SDS011;54880;50.986;6.990;2023-07-08T15:00:18;9.73;;;4.65;;
68089;SDS011;54880;50.986;6.990;2023-07-08T15:02:44;12.33;;;5.00;;
68089;SDS011;54880;50.986;6.990;2023-07-08T15:05:12;10.73;;;5.32;;
68089;SDS011;54880;50.986;6.990;2023-07-08T15:07:38;10.68;;;4.75;;
68089;SDS011;54880;50.986;6.990;2023-07-08T15:10:06;10.60;;;5.20;;
68089;SDS011;54880;50.986;6.990;2023-07-08T15:12:31;11.17;;;4.80;;
68089;SDS011;54880;50.986;6.990;2023-07-08T15:14:57;11.82;;;5.05;;
68089;SDS011;54880;50.986;6.990;2023-07-08T15:17:22;8.57;;;4.53;;
68089;SDS011;54880;50.986;6.990;2023-07-08T15:19:47;9.93;;;4.60;;
68089;SDS011;54880;50.986;6.990;2023-07-08T15:22:12;11.37;;;5.37;;
68089;SDS011;54880;50.986;6.990;2023-07-08T15:24:37;10.73;;;4.77;;
68089;SDS011;54880;50.986;6.990;2023-07-08T15:27:03;9.27;;;4.70;;
68089;SDS011;54880;50.986;6.990;2023-07-08T15:29:28;9.60;;;4.87;;
68089;SDS011;54880;50.986;6.990;2023-07-08T15:31:53;12.73;;;4.97;;
68089;SDS011;54880;50.986;6.990;2023-07-08T15:34:22;10.37;;;4.67;;
68089;SDS011;54880;50.986;6.990;2023-07-08T15:36:47;11.15;;;4.65;;